| time (UTC) | temp C | wind direction | speed KPH | gust KPH | rain 1hr cm | rain 24hr cm | rain mn cm | humidity % | barometer mb |
| 20260903011054 | 26 | 276 | 0.0 | 0.0 | 0.00 | 0.00 | 0.00 | 85 | 1017.2 |
| 20260903010550 | 26 | 287 | 0.0 | 1.6 | 0.00 | 0.00 | 0.00 | 85 | 1017.1 |
| 20260903010048 | 26 | 269 | 0.0 | 3.2 | 0.00 | 0.00 | 0.00 | 84 | 1017.0 |
| 20260903005543 | 26 | 333 | 0.0 | 1.6 | 0.00 | 0.00 | 0.00 | 84 | 1017.1 |
| 20260903005038 | 26 | 333 | 0.0 | 1.6 | 0.00 | 0.00 | 0.00 | 84 | 1017.1 |
| 20260903004538 | 26 | 315 | 0.0 | 1.6 | 0.00 | 0.00 | 0.00 | 82 | 1016.9 |
| 20260903004034 | 26 | 290 | 0.0 | 0.0 | 0.00 | 0.00 | 0.00 | 81 | 1017.1 |
| 20260903003529 | 27 | 284 | 0.0 | 1.6 | 0.00 | 0.00 | 0.00 | 80 | 1017.0 |
| 20260903003025 | 27 | 269 | 0.0 | 3.2 | 0.00 | 0.00 | 0.00 | 79 | 1016.8 |
| 20260903002525 | 27 | 304 | 0.0 | 0.0 | 0.00 | 0.00 | 0.00 | 79 | 1016.9 |
| 20260903002019 | 27 | 142 | 0.0 | 1.6 | 0.00 | 0.00 | 0.00 | 78 | 1016.9 |
| 20260903001514 | 27 | 317 | 0.0 | 1.6 | 0.00 | 0.00 | 0.00 | 77 | 1017.0 |
| 20260903001013 | 28 | 304 | 0.0 | 1.6 | 0.00 | 0.00 | 0.00 | 76 | 1016.9 |
| 20260903000508 | 28 | 320 | 0.0 | 1.6 | 0.00 | 0.00 | 0.00 | 74 | 1017.0 |
| 20260903000007 | 28 | 69 | 0.0 | 0.0 | 0.00 | 0.00 | 0.00 | 74 | 1017.1 |
| 20260902235501 | 28 | 326 | 0.0 | 1.6 | 0.00 | 0.00 | 0.00 | 72 | 1017.1 |
| 20260902234956 | 29 | 41 | 0.0 | 0.0 | 0.00 | 0.00 | 0.00 | 71 | 1016.9 |
| 20260902234451 | 29 | 129 | 0.0 | 1.6 | 0.00 | 0.00 | 0.00 | 70 | 1017.2 |
| 20260902233950 | 30 | 127 | 0.0 | 3.2 | 0.00 | 0.00 | 0.00 | 70 | 1017.0 |
| 20260902233449 | 30 | 129 | 0.0 | 3.2 | 0.00 | 0.00 | 0.00 | 68 | 1017.0 |
| 20260902232944 | 30 | 99 | 0.0 | 1.6 | 0.00 | 0.00 | 0.00 | 67 | 1017.1 |
| 20260902232438 | 30 | 142 | 0.0 | 3.2 | 0.00 | 0.00 | 0.00 | 66 | 1016.9 |
| 20260902231933 | 30 | 126 | 3.2 | 3.2 | 0.00 | 0.00 | 0.00 | 65 | 1017.2 |
| 20260902231428 | 31 | 142 | 0.0 | 1.6 | 0.00 | 0.00 | 0.00 | 64 | 1017.3 |
| 20260902230928 | 31 | 154 | 0.0 | 1.6 | 0.00 | 0.00 | 0.00 | 64 | 1017.2 |
| 20260902230422 | 31 | 138 | 1.6 | 3.2 | 0.00 | 0.00 | 0.00 | 62 | 1017.3 |
| 20260902225921 | 32 | 142 | 0.0 | 3.2 | 0.00 | 0.00 | 0.00 | 62 | 1017.1 |
| 20260902225417 | 32 | 104 | 0.0 | 3.2 | 0.00 | 0.00 | 0.00 | 61 | 1017.2 |
| 20260902224915 | 31 | 135 | 0.0 | 6.4 | 0.00 | 0.00 | 0.00 | 62 | 1017.3 |
| 20260902224415 | 32 | 58 | 1.6 | 6.4 | 0.00 | 0.00 | 0.00 | 61 | 1017.3 |
| 20260902223913 | 32 | 88 | 1.6 | 3.2 | 0.00 | 0.00 | 0.00 | 59 | 1017.1 |
| 20260902223412 | 32 | 53 | 0.0 | 3.2 | 0.00 | 0.00 | 0.00 | 58 | 1017.1 |
| 20260902222907 | 33 | 93 | 0.0 | 4.8 | 0.00 | 0.00 | 0.00 | 56 | 1017.1 |
| 20260902222405 | 33 | 59 | 3.2 | 6.4 | 0.00 | 0.00 | 0.00 | 56 | 1017.3 |
| 20260902221900 | 33 | 27 | 3.2 | 4.8 | 0.00 | 0.00 | 0.00 | 57 | 1017.3 |
| 20260902221359 | 33 | 99 | 4.8 | 6.4 | 0.00 | 0.00 | 0.00 | 58 | 1017.3 |
| 20260902220855 | 33 | 156 | 1.6 | 3.2 | 0.00 | 0.00 | 0.00 | 56 | 1017.3 |
| 20260902220354 | 33 | 50 | 1.6 | 3.2 | 0.00 | 0.00 | 0.00 | 54 | 1017.2 |
| 20260902215849 | 34 | 33 | 3.2 | 4.8 | 0.00 | 0.00 | 0.00 | 54 | 1017.2 |
| 20260902215344 | 34 | 25 | 4.8 | 6.4 | 0.00 | 0.00 | 0.00 | 53 | 1017.4 |
| 20260902214840 | 34 | 104 | 0.0 | 3.2 | 0.00 | 0.00 | 0.00 | 54 | 1017.2 |
| 20260902214339 | 35 | 108 | 3.2 | 4.8 | 0.00 | 0.00 | 0.00 | 51 | 1017.2 |
| 20260902213834 | 35 | 60 | 3.2 | 3.2 | 0.00 | 0.00 | 0.00 | 53 | 1017.3 |
| 20260902213330 | 35 | 77 | 3.2 | 3.2 | 0.00 | 0.00 | 0.00 | 52 | 1017.4 |
| 20260902212828 | 34 | 66 | 0.0 | 3.2 | 0.00 | 0.00 | 0.00 | 54 | 1017.3 |
| 20260902212325 | 33 | 117 | 0.0 | 4.8 | 0.00 | 0.00 | 0.00 | 53 | 1017.6 |
| 20260902211821 | 35 | 8 | 1.6 | 6.4 | 0.00 | 0.00 | 0.00 | 52 | 1017.4 |
| 20260902211317 | 35 | 36 | 3.2 | 6.4 | 0.00 | 0.00 | 0.00 | 52 | 1017.4 |
| 20260902210812 | 35 | 314 | 3.2 | 4.8 | 0.00 | 0.00 | 0.00 | 52 | 1017.3 |
| 20260902210306 | 35 | 20 | 6.4 | 8.0 | 0.00 | 0.00 | 0.00 | 52 | 1017.3 |
| 20260902205804 | 35 | 342 | 4.8 | 8.0 | 0.00 | 0.00 | 0.00 | 51 | 1017.5 |
| 20260902205259 | 34 | 81 | 3.2 | 4.8 | 0.00 | 0.00 | 0.00 | 55 | 1017.5 |
| 20260902204754 | 35 | 70 | 0.0 | 4.8 | 0.00 | 0.00 | 0.00 | 52 | 1017.5 |
| 20260902204250 | 35 | 41 | 4.8 | 4.8 | 0.00 | 0.00 | 0.00 | 52 | 1017.5 |
| 20260902203744 | 35 | 39 | 6.4 | 8.0 | 0.00 | 0.00 | 0.00 | 52 | 1017.3 |
| 20260902203239 | 34 | 66 | 0.0 | 3.2 | 0.00 | 0.00 | 0.00 | 52 | 1017.6 |
| 20260902202734 | 35 | 19 | 3.2 | 6.4 | 0.00 | 0.00 | 0.00 | 49 | 1017.6 |
| 20260902202230 | 35 | 31 | 6.4 | 6.4 | 0.00 | 0.00 | 0.00 | 51 | 1017.8 |
| 20260902201727 | 35 | 51 | 3.2 | 6.4 | 0.00 | 0.00 | 0.00 | 50 | 1017.8 |
| 20260902201226 | 35 | 44 | 4.8 | 6.4 | 0.00 | 0.00 | 0.00 | 52 | 1017.6 |
| 20260902200721 | 35 | 145 | 3.2 | 4.8 | 0.00 | 0.00 | 0.00 | 51 | 1017.8 |
| 20260902200216 | 34 | 17 | 1.6 | 6.4 | 0.00 | 0.00 | 0.00 | 53 | 1017.7 |
| 20260902195712 | 33 | 157 | 0.0 | 6.4 | 0.00 | 0.00 | 0.00 | 54 | 1017.8 |
| 20260902195211 | 35 | 143 | 8.0 | 11.3 | 0.00 | 0.00 | 0.00 | 51 | 1017.8 |
| 20260902194705 | 36 | 44 | 6.4 | 9.7 | 0.00 | 0.00 | 0.00 | 49 | 1017.9 |
| 20260902194200 | 36 | 94 | 0.0 | 4.8 | 0.00 | 0.00 | 0.00 | 48 | 1017.9 |
| 20260902193655 | 36 | 27 | 3.2 | 4.8 | 0.00 | 0.00 | 0.00 | 50 | 1018.2 |
| 20260902193150 | 36 | 21 | 4.8 | 6.4 | 0.00 | 0.00 | 0.00 | 49 | 1018.4 |
| 20260902192649 | 35 | 72 | 1.6 | 6.4 | 0.00 | 0.00 | 0.00 | 51 | 1018.1 |
| 20260902192143 | 36 | 97 | 6.4 | 11.3 | 0.00 | 0.00 | 0.00 | 50 | 1018.5 |
| 20260902191637 | 36 | 40 | 3.2 | 6.4 | 0.00 | 0.00 | 0.00 | 48 | 1018.2 |
| 20260902191131 | 36 | 63 | 0.0 | 4.8 | 0.00 | 0.00 | 0.00 | 48 | 1018.3 |
| 20260902190627 | 36 | 79 | 6.4 | 11.3 | 0.00 | 0.00 | 0.00 | 48 | 1018.3 |
| 20260902190122 | 36 | 248 | 3.2 | 6.4 | 0.00 | 0.00 | 0.00 | 50 | 1018.4 |
| 20260902185618 | 36 | 28 | 3.2 | 8.0 | 0.00 | 0.00 | 0.00 | 49 | 1018.5 |
| 20260902185114 | 36 | 36 | 6.4 | 8.0 | 0.00 | 0.00 | 0.00 | 48 | 1018.5 |
| 20260902184608 | 36 | 97 | 3.2 | 4.8 | 0.00 | 0.00 | 0.00 | 49 | 1018.3 |
| 20260902184058 | 36 | 85 | 1.6 | 8.0 | 0.00 | 0.00 | 0.00 | 50 | 1018.4 |
| 20260902183555 | 36 | 21 | 3.2 | 6.4 | 0.00 | 0.00 | 0.00 | 50 | 1018.6 |
| 20260902183051 | 37 | 303 | 3.2 | 6.4 | 0.00 | 0.00 | 0.00 | 48 | 1018.5 |
| 20260902182546 | 35 | 32 | 3.2 | 8.0 | 0.00 | 0.00 | 0.00 | 51 | 1018.5 |
| 20260902182043 | 36 | 21 | 1.6 | 6.4 | 0.00 | 0.00 | 0.00 | 48 | 1018.6 |
| 20260902181538 | 36 | 29 | 3.2 | 8.0 | 0.00 | 0.00 | 0.00 | 51 | 1018.4 |
| 20260902181038 | 36 | 316 | 6.4 | 6.4 | 0.00 | 0.00 | 0.00 | 50 | 1019.0 |
| 20260902180532 | 36 | 43 | 3.2 | 4.8 | 0.00 | 0.00 | 0.00 | 48 | 1018.9 |
| 20260902180029 | 35 | 94 | 3.2 | 9.7 | 0.00 | 0.00 | 0.00 | 50 | 1018.9 |
| 20260902175528 | 36 | 48 | 4.8 | 6.4 | 0.00 | 0.00 | 0.00 | 51 | 1018.6 |
| 20260902175024 | 35 | 99 | 1.6 | 8.0 | 0.00 | 0.00 | 0.00 | 51 | 1019.0 |
| 20260902174520 | 36 | 42 | 0.0 | 4.8 | 0.00 | 0.00 | 0.00 | 49 | 1018.9 |
| 20260902174010 | 35 | 86 | 3.2 | 6.4 | 0.00 | 0.00 | 0.00 | 51 | 1018.9 |
| 20260902173509 | 35 | 34 | 6.4 | 11.3 | 0.00 | 0.00 | 0.00 | 51 | 1018.9 |
| 20260902173004 | 35 | 288 | 3.2 | 6.4 | 0.00 | 0.00 | 0.00 | 49 | 1019.1 |
| 20260902172503 | 35 | 30 | 4.8 | 6.4 | 0.00 | 0.00 | 0.00 | 50 | 1019.1 |
| 20260902171959 | 35 | 42 | 1.6 | 8.0 | 0.00 | 0.00 | 0.00 | 52 | 1019.3 |
| 20260902171454 | 35 | 73 | 1.6 | 6.4 | 0.00 | 0.00 | 0.00 | 51 | 1019.3 |
| 20260902170950 | 35 | 68 | 3.2 | 4.8 | 0.00 | 0.00 | 0.00 | 52 | 1019.4 |
| 20260902170445 | 35 | 55 | 6.4 | 8.0 | 0.00 | 0.00 | 0.00 | 51 | 1019.4 |
| 20260902165941 | 35 | 57 | 3.2 | 9.7 | 0.00 | 0.00 | 0.00 | 51 | 1019.2 |
| 20260902165440 | 35 | 125 | 1.6 | 6.4 | 0.00 | 0.00 | 0.00 | 52 | 1019.4 |
| 20260902164935 | 35 | 49 | 4.8 | 6.4 | 0.00 | 0.00 | 0.00 | 50 | 1019.2 |
| 20260902164430 | 35 | 36 | 4.8 | 4.8 | 0.00 | 0.00 | 0.00 | 51 | 1019.4 |
| 20260902163929 | 35 | 39 | 6.4 | 6.4 | 0.00 | 0.00 | 0.00 | 51 | 1019.7 |
| 20260902163425 | 35 | 6 | 6.4 | 6.4 | 0.00 | 0.00 | 0.00 | 50 | 1019.5 |
| 20260902162922 | 35 | 314 | 3.2 | 6.4 | 0.00 | 0.00 | 0.00 | 55 | 1019.6 |
| 20260902162418 | 35 | 29 | 3.2 | 6.4 | 0.00 | 0.00 | 0.00 | 54 | 1019.6 |
| 20260902161917 | 34 | 9 | 4.8 | 4.8 | 0.00 | 0.00 | 0.00 | 52 | 1019.7 |
| 20260902161412 | 34 | 18 | 6.4 | 9.7 | 0.00 | 0.00 | 0.00 | 54 | 1019.9 |
| 20260902160908 | 34 | 164 | 6.4 | 8.0 | 0.00 | 0.00 | 0.00 | 56 | 1019.6 |
| 20260902160404 | 33 | 38 | 0.0 | 6.4 | 0.00 | 0.00 | 0.00 | 56 | 1019.9 |
| 20260902155901 | 33 | 296 | 3.2 | 9.7 | 0.00 | 0.00 | 0.00 | 57 | 1019.8 |
| 20260902155356 | 33 | 111 | 6.4 | 6.4 | 0.00 | 0.00 | 0.00 | 55 | 1020.0 |
| 20260902154851 | 33 | 159 | 3.2 | 9.7 | 0.00 | 0.00 | 0.00 | 58 | 1019.9 |
| 20260902154347 | 33 | 124 | 8.0 | 11.3 | 0.00 | 0.00 | 0.00 | 57 | 1019.9 |
| 20260902153845 | 32 | 185 | 3.2 | 9.7 | 0.00 | 0.00 | 0.00 | 58 | 1020.0 |
| 20260902153345 | 33 | 152 | 9.7 | 9.7 | 0.00 | 0.00 | 0.00 | 58 | 1019.8 |
| 20260902152841 | 33 | 76 | 3.2 | 6.4 | 0.00 | 0.00 | 0.00 | 61 | 1020.0 |
| 20260902152337 | 32 | 131 | 6.4 | 11.3 | 0.00 | 0.00 | 0.00 | 62 | 1020.0 |
| 20260902151832 | 34 | 122 | 4.8 | 6.4 | 0.00 | 0.00 | 0.00 | 57 | 1020.1 |
| 20260902151327 | 34 | 187 | 1.6 | 4.8 | 0.00 | 0.00 | 0.00 | 56 | 1020.0 |
| 20260902150821 | 33 | 48 | 4.8 | 4.8 | 0.00 | 0.00 | 0.00 | 58 | 1019.9 |
| 20260902150318 | 33 | 214 | 1.6 | 6.4 | 0.00 | 0.00 | 0.00 | 60 | 1019.8 |
| 20260902145817 | 33 | 29 | 3.2 | 4.8 | 0.00 | 0.00 | 0.00 | 60 | 1019.7 |
| 20260902145313 | 32 | 131 | 0.0 | 4.8 | 0.00 | 0.00 | 0.00 | 61 | 1019.9 |
| 20260902144808 | 32 | 114 | 3.2 | 8.0 | 0.00 | 0.00 | 0.00 | 65 | 1020.0 |
| 20260902144304 | 32 | 143 | 0.0 | 6.4 | 0.00 | 0.00 | 0.00 | 63 | 1020.0 |
| 20260902143758 | 32 | 165 | 1.6 | 3.2 | 0.00 | 0.00 | 0.00 | 63 | 1019.9 |
| 20260902143253 | 32 | 31 | 1.6 | 4.8 | 0.00 | 0.00 | 0.00 | 63 | 1020.0 |
| 20260902142749 | 32 | 26 | 4.8 | 6.4 | 0.00 | 0.00 | 0.00 | 62 | 1020.0 |
| 20260902142244 | 32 | 69 | 1.6 | 3.2 | 0.00 | 0.00 | 0.00 | 64 | 1020.1 |
| 20260902141744 | 31 | 311 | 3.2 | 6.4 | 0.00 | 0.00 | 0.00 | 64 | 1020.0 |
| 20260902141240 | 32 | 152 | 1.6 | 3.2 | 0.00 | 0.00 | 0.00 | 65 | 1019.9 |
| 20260902140735 | 31 | 133 | 3.2 | 4.8 | 0.00 | 0.00 | 0.00 | 67 | 1019.8 |
| 20260902140230 | 31 | 70 | 0.0 | 4.8 | 0.00 | 0.00 | 0.00 | 67 | 1019.9 |
| 20260902135729 | 31 | 29 | 0.0 | 4.8 | 0.00 | 0.00 | 0.00 | 67 | 1020.2 |
| 20260902135225 | 31 | 158 | 6.4 | 6.4 | 0.00 | 0.00 | 0.00 | 68 | 1019.9 |
| 20260902134724 | 31 | 100 | 1.6 | 3.2 | 0.00 | 0.00 | 0.00 | 69 | 1020.0 |
| 20260902134220 | 30 | 353 | 0.0 | 3.2 | 0.00 | 0.00 | 0.00 | 69 | 1019.9 |
| 20260902133716 | 30 | 343 | 0.0 | 3.2 | 0.00 | 0.00 | 0.00 | 71 | 1020.0 |
| 20260902133214 | 30 | 172 | 1.6 | 3.2 | 0.00 | 0.00 | 0.00 | 70 | 1020.0 |
| 20260902132710 | 30 | 60 | 0.0 | 3.2 | 0.00 | 0.00 | 0.00 | 71 | 1020.0 |
| 20260902132205 | 30 | 146 | 3.2 | 3.2 | 0.00 | 0.00 | 0.00 | 73 | 1020.0 |
| 20260902131701 | 30 | 138 | 0.0 | 3.2 | 0.00 | 0.00 | 0.00 | 74 | 1020.3 |
| 20260902131157 | 30 | 46 | 0.0 | 4.8 | 0.00 | 0.00 | 0.00 | 75 | 1020.1 |
| 20260902130652 | 29 | 285 | 3.2 | 3.2 | 0.00 | 0.00 | 0.00 | 74 | 1019.9 |
| 20260902130147 | 29 | 273 | 1.6 | 3.2 | 0.00 | 0.00 | 0.00 | 76 | 1020.0 |
| 20260902125643 | 28 | 244 | 0.0 | 3.2 | 0.00 | 0.00 | 0.00 | 76 | 1019.8 |
| 20260902125138 | 27 | 279 | 3.2 | 3.2 | 0.00 | 0.00 | 0.00 | 81 | 1019.9 |
| 20260902124635 | 26 | 304 | 1.6 | 3.2 | 0.00 | 0.00 | 0.00 | 87 | 1020.1 |
| 20260902124135 | 25 | 296 | 0.0 | 3.2 | 0.00 | 0.00 | 0.00 | 92 | 1019.8 |
| 20260902123631 | 23 | 257 | 1.6 | 3.2 | 0.00 | 0.00 | 0.00 | 99 | 1020.0 |
| 20260902123130 | 22 | 316 | 1.6 | 3.2 | 0.00 | 0.00 | 0.00 | 99 | 1019.7 |
| 20260902122625 | 22 | 294 | 1.6 | 3.2 | 0.00 | 0.00 | 0.00 | 99 | 1019.8 |
| 20260902122120 | 22 | 275 | 1.6 | 3.2 | 0.00 | 0.00 | 0.00 | 99 | 1019.8 |
| 20260902121614 | 21 | 288 | 3.2 | 3.2 | 0.00 | 0.00 | 0.00 | 99 | 1019.6 |
| 20260902121109 | 21 | 322 | 0.0 | 3.2 | 0.00 | 0.00 | 0.00 | 99 | 1019.7 |
| 20260902120605 | 21 | 290 | 1.6 | 3.2 | 0.00 | 0.00 | 0.00 | 99 | 1019.8 |
| 20260902120101 | 21 | 282 | 0.0 | 3.2 | 0.00 | 0.00 | 0.00 | 99 | 1019.7 |
| 20260902115556 | 21 | 323 | 3.2 | 3.2 | 0.00 | 0.00 | 0.00 | 99 | 1019.6 |
| 20260902115052 | 21 | 319 | 1.6 | 3.2 | 0.00 | 0.00 | 0.00 | 99 | 1019.7 |
| 20260902114548 | 21 | 311 | 1.6 | 3.2 | 0.00 | 0.00 | 0.00 | 99 | 1019.4 |
| 20260902114048 | 21 | 295 | 1.6 | 3.2 | 0.00 | 0.00 | 0.00 | 99 | 1019.5 |
| 20260902113543 | 20 | 316 | 0.0 | 1.6 | 0.00 | 0.00 | 0.00 | 99 | 1019.4 |
| 20260902113038 | 20 | 329 | 0.0 | 1.6 | 0.00 | 0.00 | 0.00 | 99 | 1019.2 |
| 20260902112534 | 20 | 308 | 0.0 | 1.6 | 0.00 | 0.00 | 0.00 | 99 | 1019.2 |
| 20260902112030 | 20 | 296 | 0.0 | 3.2 | 0.00 | 0.00 | 0.00 | 99 | 1019.3 |
| 20260902111526 | 20 | 309 | 0.0 | 3.2 | 0.00 | 0.00 | 0.00 | 99 | 1019.1 |
| 20260902111022 | 20 | 315 | 0.0 | 1.6 | 0.00 | 0.00 | 0.00 | 99 | 1019.2 |
| 20260902110518 | 20 | 307 | 0.0 | 1.6 | 0.00 | 0.00 | 0.00 | 99 | 1019.2 |
| 20260902110013 | 20 | 296 | 0.0 | 1.6 | 0.00 | 0.00 | 0.00 | 99 | 1019.2 |
| 20260902105508 | 20 | 269 | 0.0 | 1.6 | 0.00 | 0.00 | 0.00 | 99 | 1019.1 |
| 20260902105007 | 20 | 315 | 0.0 | 3.2 | 0.00 | 0.00 | 0.00 | 99 | 1019.3 |
| 20260902104503 | 20 | 239 | 0.0 | 1.6 | 0.00 | 0.00 | 0.00 | 99 | 1019.1 |
| 20260902103958 | 20 | 278 | 0.0 | 1.6 | 0.00 | 0.00 | 0.00 | 99 | 1019.1 |
| 20260902103454 | 20 | 304 | 0.0 | 1.6 | 0.00 | 0.00 | 0.00 | 99 | 1019.1 |
| 20260902102948 | 20 | 309 | 0.0 | 3.2 | 0.00 | 0.00 | 0.00 | 99 | 1019.1 |
| 20260902102445 | 21 | 279 | 1.6 | 3.2 | 0.00 | 0.00 | 0.00 | 99 | 1019.1 |
| 20260902101941 | 21 | 306 | 1.6 | 3.2 | 0.00 | 0.00 | 0.00 | 99 | 1019.2 |
| 20260902101435 | 21 | 330 | 0.0 | 1.6 | 0.00 | 0.00 | 0.00 | 99 | 1019.1 |
| 20260902100930 | 21 | 321 | 1.6 | 3.2 | 0.00 | 0.00 | 0.00 | 99 | 1018.6 |
| 20260902100429 | 20 | 322 | 0.0 | 3.2 | 0.00 | 0.00 | 0.00 | 99 | 1019.1 |
| 20260902095924 | 20 | 303 | 1.6 | 1.6 | 0.00 | 0.00 | 0.00 | 99 | 1019.0 |
| 20260902095420 | 20 | 317 | 0.0 | 1.6 | 0.00 | 0.00 | 0.00 | 99 | 1019.0 |
| 20260902094918 | 20 | 297 | 0.0 | 3.2 | 0.00 | 0.00 | 0.00 | 99 | 1019.1 |
| 20260902094414 | 21 | 291 | 1.6 | 3.2 | 0.00 | 0.00 | 0.00 | 99 | 1019.0 |
| 20260902093909 | 21 | 308 | 1.6 | 3.2 | 0.00 | 0.00 | 0.00 | 99 | 1018.9 |
| 20260902093404 | 21 | 303 | 0.0 | 1.6 | 0.00 | 0.00 | 0.00 | 99 | 1018.9 |
| 20260902092902 | 21 | 292 | 0.0 | 3.2 | 0.00 | 0.00 | 0.00 | 99 | 1019.0 |
| 20260902092358 | 21 | 312 | 0.0 | 1.6 | 0.00 | 0.00 | 0.00 | 99 | 1018.9 |
| 20260902091852 | 21 | 287 | 0.0 | 3.2 | 0.00 | 0.00 | 0.00 | 99 | 1019.0 |
| 20260902091348 | 21 | 308 | 1.6 | 1.6 | 0.00 | 0.00 | 0.00 | 99 | 1018.8 |
| 20260902090844 | 21 | 288 | 0.0 | 3.2 | 0.00 | 0.00 | 0.00 | 99 | 1018.8 |
| 20260902090344 | 21 | 309 | 0.0 | 1.6 | 0.00 | 0.00 | 0.00 | 99 | 1018.5 |
| 20260902085843 | 21 | 292 | 1.6 | 1.6 | 0.00 | 0.00 | 0.00 | 99 | 1018.8 |
| 20260902085338 | 21 | 305 | 0.0 | 3.2 | 0.00 | 0.00 | 0.00 | 99 | 1018.5 |
| 20260902084834 | 21 | 319 | 0.0 | 1.6 | 0.00 | 0.00 | 0.00 | 99 | 1018.5 |
| 20260902084330 | 21 | 278 | 0.0 | 1.6 | 0.00 | 0.00 | 0.00 | 99 | 1018.5 |
| 20260902083825 | 21 | 277 | 0.0 | 3.2 | 0.00 | 0.00 | 0.00 | 99 | 1018.5 |
| 20260902083319 | 21 | 269 | 0.0 | 3.2 | 0.00 | 0.00 | 0.00 | 99 | 1018.2 |
| 20260902082814 | 21 | 304 | 0.0 | 3.2 | 0.00 | 0.00 | 0.00 | 99 | 1018.3 |
| 20260902082311 | 21 | 277 | 0.0 | 1.6 | 0.00 | 0.00 | 0.00 | 99 | 1018.3 |
| 20260902081807 | 21 | 295 | 1.6 | 3.2 | 0.00 | 0.00 | 0.00 | 99 | 1018.4 |
| 20260902081302 | 21 | 283 | 0.0 | 3.2 | 0.00 | 0.00 | 0.00 | 99 | 1018.2 |
| 20260902080757 | 21 | 292 | 0.0 | 1.6 | 0.00 | 0.00 | 0.00 | 99 | 1018.3 |
| 20260902080254 | 21 | 286 | 0.0 | 3.2 | 0.00 | 0.00 | 0.00 | 99 | 1018.2 |
| 20260902075753 | 21 | 309 | 0.0 | 3.2 | 0.00 | 0.00 | 0.00 | 99 | 1018.1 |
| 20260902075249 | 21 | 300 | 0.0 | 3.2 | 0.00 | 0.00 | 0.00 | 99 | 1018.1 |
| 20260902074744 | 21 | 275 | 0.0 | 1.6 | 0.00 | 0.00 | 0.00 | 99 | 1018.1 |
| 20260902074240 | 21 | 290 | 0.0 | 1.6 | 0.00 | 0.00 | 0.00 | 99 | 1018.2 |
| 20260902073735 | 21 | 276 | 1.6 | 3.2 | 0.00 | 0.00 | 0.00 | 99 | 1018.0 |
| 20260902073231 | 21 | 279 | 0.0 | 1.6 | 0.00 | 0.00 | 0.00 | 99 | 1018.1 |
| 20260902072726 | 21 | 289 | 1.6 | 3.2 | 0.00 | 0.00 | 0.00 | 99 | 1018.1 |
| 20260902072222 | 21 | 291 | 0.0 | 1.6 | 0.00 | 0.00 | 0.00 | 99 | 1018.2 |
| 20260902071719 | 21 | 269 | 0.0 | 1.6 | 0.00 | 0.00 | 0.00 | 99 | 1018.0 |
| 20260902071213 | 21 | 326 | 0.0 | 3.2 | 0.00 | 0.00 | 0.00 | 99 | 1017.9 |
| 20260902070710 | 21 | 303 | 0.0 | 1.6 | 0.00 | 0.00 | 0.00 | 99 | 1018.1 |
| 20260902070209 | 21 | 296 | 0.0 | 1.6 | 0.00 | 0.00 | 0.00 | 99 | 1018.2 |
| 20260902065708 | 21 | 294 | 0.0 | 3.2 | 0.00 | 0.00 | 0.00 | 99 | 1018.1 |
| 20260902065204 | 21 | 256 | 0.0 | 1.6 | 0.00 | 0.00 | 0.00 | 99 | 1018.1 |
| 20260902064659 | 21 | 306 | 0.0 | 1.6 | 0.00 | 0.00 | 0.00 | 99 | 1018.2 |
| 20260902064154 | 21 | 324 | 1.6 | 3.2 | 0.00 | 0.00 | 0.00 | 99 | 1017.9 |
| 20260902063650 | 21 | 297 | 0.0 | 3.2 | 0.00 | 0.00 | 0.00 | 99 | 1017.9 |
| 20260902063144 | 21 | 282 | 1.6 | 3.2 | 0.00 | 0.00 | 0.00 | 99 | 1018.0 |
| 20260902062643 | 22 | 277 | 0.0 | 3.2 | 0.00 | 0.00 | 0.00 | 99 | 1018.1 |
| 20260902062138 | 22 | 313 | 1.6 | 3.2 | 0.00 | 0.00 | 0.00 | 99 | 1018.2 |
| 20260902061638 | 22 | 303 | 1.6 | 3.2 | 0.00 | 0.00 | 0.00 | 99 | 1018.2 |
| 20260902061134 | 22 | 304 | 0.0 | 3.2 | 0.00 | 0.00 | 0.00 | 99 | 1018.2 |
| 20260902060630 | 22 | 300 | 0.0 | 1.6 | 0.00 | 0.00 | 0.00 | 99 | 1018.2 |
| 20260902060126 | 22 | 315 | 0.0 | 3.2 | 0.00 | 0.00 | 0.00 | 99 | 1018.1 |
| 20260902055622 | 22 | 301 | 0.0 | 1.6 | 0.00 | 0.00 | 0.00 | 99 | 1018.2 |
| 20260902055117 | 22 | 323 | 0.0 | 1.6 | 0.00 | 0.00 | 0.00 | 99 | 1018.4 |
| 20260902054612 | 22 | 297 | 0.0 | 3.2 | 0.00 | 0.00 | 0.00 | 99 | 1018.2 |
| 20260902054108 | 22 | 321 | 0.0 | 3.2 | 0.00 | 0.00 | 0.00 | 99 | 1018.3 |
| 20260902053603 | 22 | 292 | 1.6 | 3.2 | 0.00 | 0.00 | 0.00 | 99 | 1018.1 |
| 20260902053102 | 22 | 308 | 1.6 | 3.2 | 0.00 | 0.00 | 0.00 | 99 | 1018.3 |
| 20260902052556 | 22 | 293 | 0.0 | 3.2 | 0.00 | 0.00 | 0.00 | 99 | 1018.4 |
| 20260902052053 | 22 | 320 | 1.6 | 1.6 | 0.00 | 0.00 | 0.00 | 99 | 1018.4 |
| 20260902051552 | 22 | 239 | 0.0 | 1.6 | 0.00 | 0.00 | 0.00 | 99 | 1018.3 |
| 20260902051051 | 22 | 269 | 0.0 | 3.2 | 0.00 | 0.00 | 0.00 | 99 | 1018.3 |
| 20260902050546 | 22 | 321 | 1.6 | 3.2 | 0.00 | 0.00 | 0.00 | 99 | 1018.3 |
| 20260902050041 | 22 | 290 | 1.6 | 1.6 | 0.00 | 0.00 | 0.00 | 99 | 1018.4 |
| 20260902045537 | 22 | 317 | 0.0 | 3.2 | 0.00 | 0.00 | 0.00 | 99 | 1018.4 |
| 20260902045033 | 22 | 224 | 0.0 | 3.2 | 0.00 | 0.00 | 0.00 | 99 | 1018.3 |
| 20260902044527 | 22 | 305 | 0.0 | 3.2 | 0.00 | 0.00 | 0.00 | 99 | 1018.3 |
| 20260902044023 | 22 | 300 | 1.6 | 3.2 | 0.00 | 0.00 | 0.00 | 99 | 1018.2 |
| 20260902043519 | 22 | 300 | 1.6 | 3.2 | 0.00 | 0.00 | 0.00 | 98 | 1018.3 |
| 20260902043018 | 22 | 286 | 0.0 | 3.2 | 0.00 | 0.00 | 0.00 | 98 | 1018.4 |
| 20260902042512 | 22 | 312 | 0.0 | 3.2 | 0.00 | 0.00 | 0.00 | 98 | 1018.3 |
| 20260902042008 | 22 | 269 | 0.0 | 1.6 | 0.00 | 0.00 | 0.00 | 98 | 1018.5 |
| 20260902041507 | 22 | 283 | 0.0 | 1.6 | 0.00 | 0.00 | 0.00 | 98 | 1018.5 |
| 20260902041002 | 22 | 290 | 0.0 | 1.6 | 0.00 | 0.00 | 0.00 | 98 | 1018.4 |
| 20260902040456 | 22 | 302 | 1.6 | 1.6 | 0.00 | 0.00 | 0.00 | 98 | 1018.3 |
| 20260902035955 | 22 | 269 | 0.0 | 1.6 | 0.00 | 0.00 | 0.00 | 98 | 1018.3 |
| 20260902035451 | 22 | 282 | 1.6 | 1.6 | 0.00 | 0.00 | 0.00 | 98 | 1018.3 |
| 20260902034950 | 22 | 284 | 0.0 | 1.6 | 0.00 | 0.00 | 0.00 | 98 | 1018.3 |
| 20260902034445 | 22 | 287 | 0.0 | 3.2 | 0.00 | 0.00 | 0.00 | 97 | 1018.4 |
| 20260902033944 | 22 | 306 | 0.0 | 1.6 | 0.00 | 0.00 | 0.00 | 97 | 1018.3 |
| 20260902033438 | 22 | 297 | 0.0 | 1.6 | 0.00 | 0.00 | 0.00 | 97 | 1018.3 |
| 20260902032937 | 23 | 271 | 0.0 | 1.6 | 0.00 | 0.00 | 0.00 | 97 | 1018.2 |
| 20260902032437 | 23 | 315 | 0.0 | 1.6 | 0.00 | 0.00 | 0.00 | 97 | 1018.2 |
| 20260902031932 | 23 | 304 | 0.0 | 1.6 | 0.00 | 0.00 | 0.00 | 97 | 1018.3 |
| 20260902031427 | 23 | 272 | 1.6 | 1.6 | 0.00 | 0.00 | 0.00 | 97 | 1018.2 |
| 20260902030924 | 23 | 302 | 0.0 | 3.2 | 0.00 | 0.00 | 0.00 | 97 | 1018.2 |
| 20260902030418 | 23 | 255 | 0.0 | 3.2 | 0.00 | 0.00 | 0.00 | 96 | 1018.4 |
| 20260902025917 | 23 | 269 | 0.0 | 3.2 | 0.00 | 0.00 | 0.00 | 96 | 1018.2 |
| 20260902025413 | 23 | 302 | 1.6 | 3.2 | 0.00 | 0.00 | 0.00 | 96 | 1018.4 |
| 20260902024908 | 23 | 293 | 0.0 | 1.6 | 0.00 | 0.00 | 0.00 | 96 | 1018.4 |
| 20260902024403 | 23 | 311 | 0.0 | 1.6 | 0.00 | 0.00 | 0.00 | 96 | 1018.4 |
| 20260902023859 | 23 | 323 | 0.0 | 1.6 | 0.00 | 0.00 | 0.00 | 96 | 1018.4 |
| 20260902023354 | 23 | 287 | 1.6 | 1.6 | 0.00 | 0.00 | 0.00 | 95 | 1018.5 |
| 20260902022853 | 23 | 283 | 0.0 | 1.6 | 0.00 | 0.00 | 0.00 | 95 | 1018.4 |
| 20260902022348 | 23 | 279 | 0.0 | 1.6 | 0.00 | 0.00 | 0.00 | 95 | 1018.5 |
| 20260902021844 | 23 | 315 | 0.0 | 1.6 | 0.00 | 0.00 | 0.00 | 95 | 1018.4 |
| 20260902021338 | 23 | 306 | 0.0 | 1.6 | 0.00 | 0.00 | 0.00 | 95 | 1018.4 |
| 20260902020834 | 24 | 291 | 0.0 | 1.6 | 0.00 | 0.00 | 0.00 | 94 | 1018.3 |
| 20260902020330 | 24 | 295 | 0.0 | 1.6 | 0.00 | 0.00 | 0.00 | 94 | 1018.3 |
| 20260902015825 | 24 | 284 | 0.0 | 1.6 | 0.00 | 0.00 | 0.00 | 94 | 1018.4 |
| 20260902015321 | 24 | 264 | 0.0 | 1.6 | 0.00 | 0.00 | 0.00 | 93 | 1018.2 |
| 20260902014817 | 24 | 306 | 0.0 | 1.6 | 0.00 | 0.00 | 0.00 | 93 | 1018.3 |
| 20260902014313 | 24 | 255 | 0.0 | 1.6 | 0.00 | 0.00 | 0.00 | 93 | 1018.4 |
| 20260902013812 | 25 | 290 | 0.0 | 1.6 | 0.00 | 0.00 | 0.00 | 92 | 1018.1 |
| 20260902013308 | 25 | 269 | 0.0 | 1.6 | 0.00 | 0.00 | 0.00 | 92 | 1018.3 |
| 20260902012803 | 25 | 0 | 0.0 | 0.0 | 0.00 | 0.00 | 0.00 | 91 | 1018.1 |
| 20260902012259 | 25 | 269 | 0.0 | 1.6 | 0.00 | 0.00 | 0.00 | 91 | 1017.9 |
| 20260902011754 | 25 | 321 | 0.0 | 1.6 | 0.00 | 0.00 | 0.00 | 90 | 1018.0 |